createdAt,value
2018-03-04T00:00:01.578Z,0.49
2018-03-04T00:02:29.337Z,0.55
2018-03-04T00:04:57.052Z,0.49
2018-03-04T00:07:24.833Z,0.50
2018-03-04T00:09:52.595Z,0.58
2018-03-04T00:12:20.308Z,0.58
2018-03-04T00:14:48.152Z,0.50
2018-03-04T00:17:15.873Z,0.48
2018-03-04T00:19:43.549Z,0.53
2018-03-04T00:22:11.325Z,0.53
2018-03-04T00:24:39.072Z,0.50
2018-03-04T00:27:06.830Z,0.49
2018-03-04T00:29:34.591Z,0.47
2018-03-04T00:32:02.287Z,0.37
2018-03-04T00:34:30.054Z,0.35
2018-03-04T00:36:57.838Z,0.35
2018-03-04T00:39:25.635Z,0.38
2018-03-04T00:41:53.288Z,0.50
2018-03-04T00:44:21.052Z,0.51
2018-03-04T00:46:48.807Z,0.55
2018-03-04T00:49:16.484Z,0.50
2018-03-04T00:51:44.133Z,0.60
2018-03-04T00:54:11.885Z,0.43
2018-03-04T00:56:39.582Z,0.41
2018-03-04T00:59:07.240Z,0.47
2018-03-04T01:01:35.003Z,0.49
2018-03-04T01:04:02.674Z,0.49
2018-03-04T01:06:30.409Z,0.41
2018-03-04T01:08:58.070Z,0.33
2018-03-04T01:11:25.764Z,0.24
2018-03-04T01:13:53.608Z,0.34
2018-03-04T01:16:21.332Z,0.41
2018-03-04T01:18:49.071Z,0.31
2018-03-04T01:21:16.787Z,0.35
2018-03-04T01:23:44.514Z,0.34
2018-03-04T01:26:12.214Z,0.34
2018-03-04T01:28:40.024Z,0.37
2018-03-04T01:31:07.804Z,0.40
2018-03-04T01:33:35.517Z,0.39
2018-03-04T01:36:03.253Z,0.33
2018-03-04T01:38:31.007Z,0.28
2018-03-04T01:40:58.716Z,0.40
2018-03-04T01:43:27.270Z,0.47
2018-03-04T01:45:54.985Z,0.47
2018-03-04T01:48:22.683Z,0.24
2018-03-04T01:50:50.412Z,0.17
2018-03-04T01:53:18.180Z,0.12
2018-03-04T01:55:45.930Z,0.25
2018-03-04T01:58:13.672Z,0.26
2018-03-04T02:00:41.403Z,0.31
2018-03-04T02:03:09.167Z,0.37
2018-03-04T02:05:36.828Z,0.38
2018-03-04T02:08:04.570Z,0.42
2018-03-04T02:10:32.329Z,0.42
2018-03-04T02:13:00.039Z,0.39
2018-03-04T02:15:27.765Z,0.48
2018-03-04T02:17:56.043Z,0.36
2018-03-04T02:20:23.914Z,0.30
2018-03-04T02:22:51.583Z,0.23
2018-03-04T02:25:19.294Z,0.42
2018-03-04T02:27:47.034Z,0.31
2018-03-04T02:30:14.698Z,0.42
2018-03-04T02:32:42.363Z,0.41
2018-03-04T02:35:10.120Z,0.36
2018-03-04T02:37:37.939Z,0.40
2018-03-04T02:40:05.605Z,0.33
2018-03-04T02:42:33.274Z,0.38
2018-03-04T02:45:00.987Z,0.38
2018-03-04T02:47:28.686Z,0.37
2018-03-04T02:49:56.410Z,0.13
2018-03-04T02:52:26.675Z,0.12
2018-03-04T02:54:54.344Z,0.27
2018-03-04T02:57:22.076Z,0.14
2018-03-04T02:59:49.798Z,0.13
2018-03-04T03:02:17.548Z,0.16
2018-03-04T03:04:45.224Z,0.10
2018-03-04T03:07:12.899Z,0.23
2018-03-04T03:09:40.618Z,0.13
2018-03-04T03:12:08.375Z,0.00
2018-03-04T03:14:36.096Z,-0.06
2018-03-04T03:17:03.826Z,0.01
2018-03-04T03:19:31.594Z,-0.05
2018-03-04T03:21:59.339Z,-0.02
2018-03-04T03:24:27.040Z,-0.01
2018-03-04T03:26:54.760Z,0.03
2018-03-04T03:29:22.458Z,0.06
2018-03-04T03:31:50.187Z,0.14
2018-03-04T03:34:17.880Z,0.05
2018-03-04T03:36:45.578Z,-0.14
2018-03-04T03:39:13.307Z,-0.13
2018-03-04T03:41:41.050Z,0.06
2018-03-04T03:44:08.719Z,0.14
2018-03-04T03:46:36.448Z,0.14
2018-03-04T03:49:04.141Z,0.16
2018-03-04T03:51:31.873Z,0.16
2018-03-04T03:53:59.626Z,-0.11
2018-03-04T03:56:27.303Z,-0.11
2018-03-04T03:58:55.086Z,-0.23
2018-03-04T04:01:22.764Z,-0.26
2018-03-04T04:03:50.551Z,-0.38
2018-03-04T04:06:18.240Z,-0.39
2018-03-04T04:08:45.921Z,-0.43
2018-03-04T04:11:13.666Z,-0.42
2018-03-04T04:13:41.399Z,-0.22
2018-03-04T04:16:09.089Z,0.01
2018-03-04T04:18:36.820Z,-0.12
2018-03-04T04:21:04.554Z,-0.15
2018-03-04T04:23:32.310Z,-0.05
2018-03-04T04:25:59.979Z,-0.03
2018-03-04T04:28:27.720Z,0.04
2018-03-04T04:30:55.443Z,0.06
2018-03-04T04:33:23.225Z,-0.09
2018-03-04T04:35:50.944Z,-0.11
2018-03-04T04:38:18.693Z,-0.18
2018-03-04T04:40:46.378Z,-0.22
2018-03-04T04:43:14.076Z,-0.22
2018-03-04T04:45:41.863Z,-0.23
2018-03-04T04:48:09.558Z,-0.13
2018-03-04T04:50:37.262Z,-0.17
2018-03-04T04:53:04.926Z,-0.04
2018-03-04T04:55:32.644Z,-0.13
2018-03-04T04:58:00.413Z,-0.23
2018-03-04T05:00:28.140Z,-0.33
2018-03-04T05:02:55.897Z,-0.41
2018-03-04T05:05:23.593Z,-0.31
2018-03-04T05:07:51.317Z,-0.32
2018-03-04T05:10:19.008Z,-0.29
2018-03-04T05:12:46.760Z,-0.41
2018-03-04T05:15:14.491Z,-0.41
2018-03-04T05:17:42.263Z,-0.34
2018-03-04T05:20:09.967Z,-0.39
2018-03-04T05:22:37.684Z,-0.27
2018-03-04T05:25:05.417Z,-0.33
2018-03-04T05:27:33.392Z,-0.40
2018-03-04T05:30:01.119Z,-0.37
2018-03-04T05:32:28.864Z,-0.27
2018-03-04T05:34:56.694Z,-0.19
2018-03-04T05:37:24.415Z,-0.23
2018-03-04T05:39:52.128Z,-0.19
2018-03-04T05:42:19.850Z,-0.02
2018-03-04T05:44:47.611Z,-0.13
2018-03-04T05:47:15.351Z,-0.11
2018-03-04T05:49:43.104Z,-0.32
2018-03-04T05:52:10.809Z,-0.25
2018-03-04T05:54:38.479Z,-0.38
2018-03-04T05:57:06.221Z,-0.29
2018-03-04T05:59:33.949Z,-0.17
2018-03-04T06:02:01.701Z,-0.24
2018-03-04T06:04:29.398Z,-0.29
2018-03-04T06:06:57.172Z,-0.30
2018-03-04T06:09:24.858Z,-0.29
2018-03-04T06:11:52.676Z,-0.21
2018-03-04T06:14:20.470Z,-0.22
2018-03-04T06:16:48.227Z,-0.24
2018-03-04T06:19:15.896Z,-0.27
2018-03-04T06:21:43.642Z,-0.13
2018-03-04T06:24:11.318Z,-0.08
2018-03-04T06:26:39.116Z,-0.06
2018-03-04T06:29:06.912Z,0.04
2018-03-04T06:31:34.600Z,0.05
2018-03-04T06:34:02.356Z,-0.02
2018-03-04T06:36:30.109Z,0.00
2018-03-04T06:38:57.846Z,0.09
2018-03-04T06:41:25.587Z,0.09
2018-03-04T06:43:53.363Z,0.09
2018-03-04T06:46:21.073Z,0.14
2018-03-04T06:48:48.772Z,0.11
2018-03-04T06:51:16.656Z,0.12
2018-03-04T06:53:44.357Z,0.17
2018-03-04T06:56:12.094Z,0.18
2018-03-04T06:58:39.807Z,0.02
2018-03-04T07:01:07.538Z,0.23
2018-03-04T07:03:35.322Z,0.18
2018-03-04T07:06:03.077Z,0.27
2018-03-04T07:08:30.850Z,0.25
2018-03-04T07:10:58.628Z,0.29
2018-03-04T07:13:26.421Z,0.61
2018-03-04T07:15:54.140Z,0.83
2018-03-04T07:18:21.908Z,1.03
2018-03-04T07:20:49.663Z,1.07
2018-03-04T07:23:17.451Z,1.25
2018-03-04T07:25:45.234Z,1.45
2018-03-04T07:28:13.020Z,1.62
2018-03-04T07:30:40.910Z,1.63
2018-03-04T07:33:08.694Z,1.87
2018-03-04T07:35:36.501Z,2.00
2018-03-04T07:38:04.259Z,1.86
2018-03-04T07:40:32.078Z,1.35
2018-03-04T07:43:01.005Z,1.49
2018-03-04T07:45:29.486Z,1.28
2018-03-04T07:47:57.269Z,1.30
2018-03-04T07:50:24.955Z,1.37
2018-03-04T07:52:53.359Z,1.56
2018-03-04T07:55:21.097Z,1.54
2018-03-04T07:57:48.864Z,1.69
2018-03-04T08:00:16.594Z,1.64
2018-03-04T08:02:44.840Z,1.80
2018-03-04T08:05:12.600Z,2.05
2018-03-04T08:07:40.462Z,2.41
2018-03-04T08:10:08.255Z,2.47
2018-03-04T08:12:36.009Z,2.61
2018-03-04T08:15:03.814Z,2.24
2018-03-04T08:17:32.659Z,2.35
2018-03-04T08:20:00.382Z,2.38
2018-03-04T08:22:28.191Z,2.45
2018-03-04T08:25:07.590Z,2.11
2018-03-04T08:27:47.962Z,2.48
2018-03-04T08:30:15.922Z,2.39
2018-03-04T08:32:43.890Z,2.60
2018-03-04T08:35:11.960Z,2.98
2018-03-04T08:37:40.656Z,3.74
2018-03-04T08:40:08.539Z,4.13
2018-03-04T08:42:36.334Z,4.81
2018-03-04T08:45:04.069Z,5.16
2018-03-04T08:47:31.824Z,4.67
2018-03-04T08:49:59.838Z,5.00
2018-03-04T08:52:27.600Z,5.58
2018-03-04T08:54:56.361Z,6.88
2018-03-04T08:57:24.161Z,6.31
2018-03-04T08:59:51.981Z,6.66
2018-03-04T09:02:20.028Z,6.19
2018-03-04T09:04:48.117Z,6.27
2018-03-04T09:07:16.053Z,6.60
2018-03-04T09:09:44.146Z,6.60
2018-03-04T09:12:12.036Z,6.79
2018-03-04T09:14:39.953Z,6.82
2018-03-04T09:17:08.892Z,7.54
2018-03-04T09:19:37.441Z,8.13
2018-03-04T09:22:05.305Z,7.68
2018-03-04T09:24:33.174Z,8.53
2018-03-04T09:27:02.228Z,9.04
2018-03-04T09:29:29.961Z,8.89
2018-03-04T09:31:58.693Z,8.47
2018-03-04T09:34:26.463Z,8.67
2018-03-04T09:36:54.131Z,8.79
2018-03-04T09:39:21.911Z,8.34
2018-03-04T09:41:49.616Z,9.08
2018-03-04T09:44:17.443Z,8.72
2018-03-04T09:46:45.133Z,7.87
2018-03-04T09:49:12.892Z,7.11
2018-03-04T09:51:41.371Z,7.91
2018-03-04T09:54:09.094Z,8.14
2018-03-04T09:56:36.868Z,8.55
2018-03-04T09:59:04.606Z,8.90
2018-03-04T10:01:32.634Z,10.00
2018-03-04T10:04:00.356Z,9.22
2018-03-04T10:06:28.232Z,10.02
2018-03-04T10:08:55.931Z,9.81
2018-03-04T10:11:23.672Z,9.36
2018-03-04T10:13:51.402Z,9.57
2018-03-04T10:16:19.114Z,9.90
2018-03-04T10:18:46.876Z,10.72
2018-03-04T10:21:14.644Z,10.97
2018-03-04T10:23:42.381Z,11.12
2018-03-04T10:26:10.142Z,11.28
2018-03-04T10:28:37.836Z,11.00
2018-03-04T10:31:05.603Z,9.89
2018-03-04T10:33:33.363Z,10.14
2018-03-04T10:36:01.113Z,10.68
2018-03-04T10:38:28.825Z,11.83
2018-03-04T10:40:56.623Z,11.18
2018-03-04T10:43:24.320Z,10.99
2018-03-04T10:45:52.778Z,10.67
2018-03-04T10:48:20.474Z,11.25
2018-03-04T10:50:48.229Z,11.50
2018-03-04T10:53:16.116Z,10.94
2018-03-04T10:55:43.874Z,12.35
2018-03-04T10:58:11.604Z,11.63
2018-03-04T11:00:44.826Z,10.95
2018-03-04T11:03:18.945Z,11.35
2018-03-04T11:05:46.752Z,10.66
2018-03-04T11:08:14.508Z,12.10
2018-03-04T11:10:42.214Z,11.96
2018-03-04T11:13:09.958Z,11.12
2018-03-04T11:15:37.674Z,10.96
2018-03-04T11:18:05.428Z,12.29
2018-03-04T11:20:33.152Z,11.63
2018-03-04T11:23:00.906Z,10.80
2018-03-04T11:25:28.682Z,10.78
2018-03-04T11:27:56.405Z,11.37
2018-03-04T11:30:24.182Z,11.81
2018-03-04T11:32:51.898Z,11.95
2018-03-04T11:35:19.594Z,11.24
2018-03-04T11:37:47.391Z,11.32
2018-03-04T11:40:15.124Z,11.90
2018-03-04T11:42:42.863Z,12.51
2018-03-04T11:45:11.390Z,12.51
2018-03-04T11:47:39.334Z,12.47
2018-03-04T11:50:07.078Z,12.66
2018-03-04T11:52:34.873Z,12.51
2018-03-04T11:55:02.661Z,12.90
2018-03-04T11:57:30.445Z,13.03
2018-03-04T11:59:58.135Z,12.24
2018-03-04T12:02:25.847Z,11.92
2018-03-04T12:04:53.617Z,12.54
2018-03-04T12:07:21.378Z,12.75
2018-03-04T12:09:49.117Z,12.76
2018-03-04T12:12:16.824Z,12.80
2018-03-04T12:14:44.748Z,12.53
2018-03-04T12:17:12.479Z,12.49
2018-03-04T12:19:40.223Z,12.44
2018-03-04T12:22:07.938Z,12.68
2018-03-04T12:24:35.755Z,13.49
2018-03-04T12:27:03.481Z,13.48
2018-03-04T12:29:31.250Z,13.04
2018-03-04T12:31:59.062Z,13.10
2018-03-04T12:34:26.811Z,13.04
2018-03-04T12:36:55.787Z,13.05
2018-03-04T12:39:23.573Z,12.92
2018-03-04T12:41:51.385Z,12.90
2018-03-04T12:44:19.105Z,12.81
2018-03-04T12:46:46.794Z,13.33
2018-03-04T12:49:14.569Z,12.61
2018-03-04T12:51:42.317Z,12.76
2018-03-04T12:54:10.068Z,13.02
2018-03-04T12:56:39.049Z,13.93
2018-03-04T12:59:06.870Z,13.21
2018-03-04T13:01:34.641Z,13.35
2018-03-04T13:04:02.378Z,13.11
2018-03-04T13:06:30.082Z,13.57
2018-03-04T13:08:57.903Z,13.36
2018-03-04T13:11:25.681Z,13.63
2018-03-04T13:13:53.441Z,13.58
2018-03-04T13:16:21.144Z,13.26
2018-03-04T13:18:48.947Z,13.60
2018-03-04T13:21:16.658Z,13.18
2018-03-04T13:23:44.328Z,13.58
2018-03-04T13:26:12.095Z,13.64
2018-03-04T13:28:40.618Z,13.85
2018-03-04T13:31:08.395Z,13.87
2018-03-04T13:33:36.086Z,13.79
2018-03-04T13:36:03.960Z,13.86
2018-03-04T13:38:31.730Z,13.44
2018-03-04T13:40:59.493Z,13.60
2018-03-04T13:43:27.260Z,13.95
2018-03-04T13:45:54.996Z,14.07
2018-03-04T13:48:22.703Z,14.04
2018-03-04T13:50:50.446Z,13.88
2018-03-04T13:53:18.134Z,13.75
2018-03-04T13:55:45.891Z,13.31
2018-03-04T13:58:13.617Z,13.89
2018-03-04T14:00:41.366Z,13.43
2018-03-04T14:03:09.079Z,13.05
2018-03-04T14:05:36.748Z,12.90
2018-03-04T14:08:04.522Z,12.64
2018-03-04T14:10:32.210Z,12.54
2018-03-04T14:12:59.976Z,12.38
2018-03-04T14:15:27.707Z,12.19
2018-03-04T14:17:55.410Z,12.39
2018-03-04T14:20:23.184Z,12.29
2018-03-04T14:22:50.867Z,12.31
2018-03-04T14:25:18.642Z,12.54
2018-03-04T14:27:46.377Z,12.81
2018-03-04T14:30:14.067Z,12.39
2018-03-04T14:32:41.869Z,11.98
2018-03-04T14:35:09.555Z,11.69
2018-03-04T14:37:37.296Z,11.65
2018-03-04T14:40:05.839Z,11.73
2018-03-04T14:42:33.532Z,11.78
2018-03-04T14:45:01.282Z,11.66
2018-03-04T14:47:29.126Z,11.64
2018-03-04T14:49:56.823Z,11.53
2018-03-04T14:52:25.870Z,11.66
2018-03-04T14:54:53.550Z,10.97
2018-03-04T14:57:21.309Z,11.20
2018-03-04T14:59:49.082Z,11.07
2018-03-04T15:02:16.789Z,10.88
2018-03-04T15:04:44.560Z,10.65
2018-03-04T15:07:13.599Z,10.28
2018-03-04T15:09:41.346Z,10.00
2018-03-04T15:12:09.116Z,10.00
2018-03-04T15:14:36.834Z,10.10
2018-03-04T15:17:04.590Z,9.90
2018-03-04T15:19:32.278Z,9.60
2018-03-04T15:22:00.030Z,9.37
2018-03-04T15:24:27.806Z,9.07
2018-03-04T15:26:55.585Z,8.68
2018-03-04T15:29:23.294Z,8.31
2018-03-04T15:31:51.062Z,8.53
2018-03-04T15:34:18.823Z,8.35
2018-03-04T15:36:46.587Z,8.03
2018-03-04T15:39:14.349Z,7.80
2018-03-04T15:41:42.044Z,7.57
2018-03-04T15:44:09.837Z,7.41
2018-03-04T15:46:37.538Z,7.30
2018-03-04T15:49:05.253Z,7.58
2018-03-04T15:51:32.995Z,7.31
2018-03-04T15:54:00.770Z,7.03
2018-03-04T15:56:28.487Z,6.83
2018-03-04T15:58:56.212Z,6.73
2018-03-04T16:01:23.952Z,6.48
2018-03-04T16:03:51.656Z,6.52
2018-03-04T16:06:19.410Z,6.45
2018-03-04T16:08:47.097Z,6.49
2018-03-04T16:11:14.793Z,6.45
2018-03-04T16:13:42.559Z,6.53
2018-03-04T16:16:10.361Z,6.45
2018-03-04T16:18:39.066Z,6.37
2018-03-04T16:21:07.015Z,6.32
2018-03-04T16:23:34.774Z,6.21
2018-03-04T16:26:02.463Z,6.02
2018-03-04T16:28:30.216Z,6.10
2018-03-04T16:30:57.940Z,6.03
2018-03-04T16:33:25.687Z,5.57
2018-03-04T16:35:53.375Z,5.45
2018-03-04T16:38:21.130Z,5.44
2018-03-04T16:40:48.904Z,5.54
2018-03-04T16:43:16.607Z,5.61
2018-03-04T16:45:44.362Z,5.24
2018-03-04T16:48:12.073Z,5.23
2018-03-04T16:50:39.879Z,5.38
2018-03-04T16:53:07.553Z,5.39
2018-03-04T16:55:35.313Z,5.26
2018-03-04T16:58:02.965Z,5.33
2018-03-04T17:00:30.684Z,5.32
2018-03-04T17:02:58.506Z,5.31
2018-03-04T17:05:26.297Z,5.15
2018-03-04T17:07:54.061Z,5.23
2018-03-04T17:10:21.807Z,5.62
2018-03-04T17:12:49.646Z,4.90
2018-03-04T17:15:17.390Z,4.77
2018-03-04T17:17:45.158Z,5.06
2018-03-04T17:20:12.855Z,5.06
2018-03-04T17:22:40.593Z,4.81
2018-03-04T17:25:08.390Z,4.67
2018-03-04T17:27:36.163Z,4.61
2018-03-04T17:30:03.901Z,4.63
2018-03-04T17:32:31.664Z,4.64
2018-03-04T17:34:59.448Z,4.55
2018-03-04T17:37:27.286Z,4.49
2018-03-04T17:39:54.929Z,4.39
2018-03-04T17:42:22.660Z,4.50
2018-03-04T17:44:50.442Z,4.51
2018-03-04T17:47:18.133Z,4.43
2018-03-04T17:49:45.878Z,4.19
2018-03-04T17:52:13.653Z,3.99
2018-03-04T17:54:41.491Z,4.06
2018-03-04T17:57:09.225Z,3.94
2018-03-04T17:59:37.494Z,4.01
2018-03-04T18:02:05.849Z,3.99
2018-03-04T18:04:33.512Z,4.04
2018-03-04T18:07:01.278Z,4.01
2018-03-04T18:09:28.988Z,3.96
2018-03-04T18:11:56.686Z,3.89
2018-03-04T18:14:24.405Z,3.75
2018-03-04T18:16:52.115Z,3.69
2018-03-04T18:19:19.883Z,3.58
2018-03-04T18:21:47.642Z,3.61
2018-03-04T18:24:15.417Z,3.57
2018-03-04T18:26:43.174Z,3.53
2018-03-04T18:29:10.976Z,3.46
2018-03-04T18:31:38.656Z,3.34
2018-03-04T18:34:06.407Z,3.31
2018-03-04T18:36:34.113Z,3.43
2018-03-04T18:39:01.939Z,3.51
2018-03-04T18:41:29.665Z,3.32
2018-03-04T18:43:57.599Z,3.29
2018-03-04T18:46:25.384Z,3.30
2018-03-04T18:48:54.217Z,3.23
2018-03-04T18:51:22.021Z,3.10
2018-03-04T18:53:49.863Z,3.16
2018-03-04T18:56:17.573Z,3.09
2018-03-04T18:58:45.463Z,3.08
2018-03-04T19:01:13.318Z,3.05
2018-03-04T19:03:41.134Z,2.87
2018-03-04T19:06:08.869Z,2.93
2018-03-04T19:08:36.626Z,2.97
2018-03-04T19:11:04.659Z,3.06
2018-03-04T19:13:32.433Z,3.08
2018-03-04T19:16:00.247Z,2.99
2018-03-04T19:18:28.006Z,3.12
2018-03-04T19:20:55.796Z,3.05
2018-03-04T19:23:23.578Z,3.03
2018-03-04T19:25:51.381Z,2.96
2018-03-04T19:28:19.187Z,2.98
2018-03-04T19:30:46.961Z,3.07
2018-03-04T19:33:14.642Z,2.96
2018-03-04T19:35:42.412Z,2.97
2018-03-04T19:38:10.246Z,2.99
2018-03-04T19:40:38.208Z,2.85
2018-03-04T19:43:06.661Z,2.76
2018-03-04T19:45:34.443Z,2.63
2018-03-04T19:48:02.184Z,2.54
2018-03-04T19:50:30.036Z,2.60
2018-03-04T19:52:58.860Z,2.57
2018-03-04T19:55:26.557Z,2.76
2018-03-04T19:57:54.477Z,2.54
2018-03-04T20:00:22.269Z,2.40
2018-03-04T20:02:50.123Z,2.31
2018-03-04T20:05:17.880Z,2.22
2018-03-04T20:07:45.573Z,2.28
2018-03-04T20:10:13.399Z,2.23
2018-03-04T20:12:41.146Z,2.21
2018-03-04T20:15:09.025Z,2.17
2018-03-04T20:17:37.514Z,2.25
2018-03-04T20:20:05.225Z,2.22
2018-03-04T20:22:32.985Z,2.12
2018-03-04T20:25:00.747Z,2.15
2018-03-04T20:27:28.583Z,2.17
2018-03-04T20:29:56.566Z,2.18
2018-03-04T20:32:24.262Z,2.17
2018-03-04T20:34:52.097Z,2.11
2018-03-04T20:37:19.784Z,2.05
2018-03-04T20:39:47.689Z,2.01
2018-03-04T20:42:15.582Z,1.85
2018-03-04T20:44:43.417Z,2.03
2018-03-04T20:47:11.116Z,1.82
2018-03-04T20:49:38.920Z,1.74
2018-03-04T20:52:06.619Z,1.74
2018-03-04T20:54:34.563Z,1.67
2018-03-04T20:57:02.340Z,1.70
2018-03-04T20:59:30.018Z,1.71
2018-03-04T21:01:57.777Z,1.70
2018-03-04T21:04:25.523Z,1.72
2018-03-04T21:06:53.740Z,1.73
2018-03-04T21:09:21.617Z,1.74
2018-03-04T21:11:49.352Z,1.84
2018-03-04T21:14:17.495Z,1.90
2018-03-04T21:16:45.195Z,1.87
2018-03-04T21:19:12.909Z,1.56
2018-03-04T21:21:40.658Z,1.47
2018-03-04T21:24:08.379Z,1.48
2018-03-04T21:26:36.115Z,1.39
2018-03-04T21:29:03.912Z,1.35
2018-03-04T21:31:31.610Z,1.34
2018-03-04T21:33:59.389Z,1.45
2018-03-04T21:36:27.179Z,1.11
2018-03-04T21:38:54.919Z,1.29
2018-03-04T21:41:22.645Z,1.37
2018-03-04T21:43:50.356Z,1.43
2018-03-04T21:46:18.116Z,1.55
2018-03-04T21:48:45.795Z,1.22
2018-03-04T21:51:13.475Z,1.16
2018-03-04T21:53:42.218Z,1.25
2018-03-04T21:56:10.306Z,0.99
2018-03-04T21:58:38.155Z,0.97
2018-03-04T22:01:06.141Z,1.03
2018-03-04T22:03:34.245Z,1.13
2018-03-04T22:06:02.151Z,1.06
2018-03-04T22:08:30.019Z,1.08
2018-03-04T22:10:57.986Z,1.11
2018-03-04T22:13:25.886Z,0.99
2018-03-04T22:15:53.950Z,0.95
2018-03-04T22:18:22.043Z,0.98
2018-03-04T22:20:50.316Z,0.94
2018-03-04T22:23:18.191Z,0.94
2018-03-04T22:25:46.261Z,0.81
2018-03-04T22:28:14.232Z,0.82
2018-03-04T22:30:42.145Z,0.80
2018-03-04T22:33:10.013Z,0.85
2018-03-04T22:35:38.035Z,0.76
2018-03-04T22:38:06.025Z,0.84
2018-03-04T22:40:34.061Z,0.73
2018-03-04T22:43:02.007Z,0.40
2018-03-04T22:45:30.116Z,0.59
2018-03-04T22:47:59.282Z,0.55
2018-03-04T22:50:27.387Z,0.53
2018-03-04T22:52:56.182Z,0.66
2018-03-04T22:55:23.923Z,0.79
2018-03-04T22:57:51.679Z,0.68
2018-03-04T23:00:19.515Z,0.61
2018-03-04T23:02:47.689Z,0.56
2018-03-04T23:05:15.429Z,0.50
2018-03-04T23:07:43.117Z,0.49
2018-03-04T23:10:11.301Z,0.53
2018-03-04T23:12:39.318Z,0.48
2018-03-04T23:15:07.174Z,0.44
2018-03-04T23:17:34.934Z,0.47
2018-03-04T23:20:04.154Z,0.42
2018-03-04T23:22:32.150Z,0.42
2018-03-04T23:24:59.912Z,0.39
2018-03-04T23:27:27.608Z,0.38
2018-03-04T23:29:55.332Z,0.38
2018-03-04T23:32:23.379Z,0.33
2018-03-04T23:34:51.130Z,0.01
2018-03-04T23:37:18.795Z,0.12
2018-03-04T23:39:46.545Z,0.29
2018-03-04T23:42:14.258Z,0.27
2018-03-04T23:44:41.974Z,0.31
2018-03-04T23:47:09.712Z,0.37
2018-03-04T23:49:37.365Z,0.19
2018-03-04T23:52:05.354Z,0.32
2018-03-04T23:54:33.074Z,0.33
2018-03-04T23:57:01.059Z,0.28
2018-03-04T23:59:28.811Z,0.09
